createdAt,value
2019-06-27T00:03:01.701Z,27.26
2019-06-27T00:08:05.002Z,27.25
2019-06-27T00:13:07.743Z,27.05
2019-06-27T00:18:09.783Z,26.91
2019-06-27T00:23:14.936Z,26.71
2019-06-27T00:28:17.894Z,26.84
2019-06-27T00:33:20.923Z,26.76
2019-06-27T00:38:24.725Z,26.64
2019-06-27T00:43:27.415Z,26.68
2019-06-27T00:48:29.973Z,26.67
2019-06-27T00:53:32.257Z,26.38
2019-06-27T00:58:34.247Z,26.36
2019-06-27T01:03:37.968Z,26.10
2019-06-27T01:08:41.251Z,26.21
2019-06-27T01:13:44.231Z,25.94
2019-06-27T01:18:46.244Z,26.08
2019-06-27T01:23:51.096Z,26.08
2019-06-27T01:28:54.547Z,25.88
2019-06-27T01:33:57.358Z,25.91
2019-06-27T01:39:00.425Z,25.73
2019-06-27T01:44:05.173Z,25.62
2019-06-27T01:49:11.328Z,25.46
2019-06-27T01:54:18.258Z,25.44
2019-06-27T01:59:25.154Z,25.51
2019-06-27T02:04:27.955Z,25.35
2019-06-27T02:09:33.424Z,25.30
2019-06-27T02:14:38.788Z,25.18
2019-06-27T02:19:40.793Z,25.24
2019-06-27T02:24:44.989Z,24.94
2019-06-27T02:29:47.403Z,24.84
2019-06-27T02:34:50.287Z,24.71
2019-06-27T02:39:54.425Z,24.63
2019-06-27T02:44:57.734Z,24.73
2019-06-27T02:50:02.904Z,24.54
2019-06-27T02:55:05.054Z,24.62
2019-06-27T03:00:09.177Z,24.52
2019-06-27T03:05:13.483Z,24.32
2019-06-27T03:10:16.474Z,24.35
2019-06-27T03:15:18.546Z,24.23
2019-06-27T03:20:20.695Z,24.31
2019-06-27T03:25:23.000Z,24.16
2019-06-27T03:30:26.849Z,23.95
2019-06-27T03:35:29.169Z,23.99
2019-06-27T03:40:33.875Z,23.83
2019-06-27T03:45:39.692Z,23.78
2019-06-27T03:50:44.743Z,23.77
2019-06-27T03:55:49.295Z,23.93
2019-06-27T04:00:51.842Z,23.83
2019-06-27T04:05:54.839Z,23.65
2019-06-27T04:10:58.238Z,23.58
2019-06-27T04:16:01.873Z,23.53
2019-06-27T04:21:04.216Z,23.66
2019-06-27T04:26:06.823Z,23.59
2019-06-27T04:31:09.879Z,23.33
2019-06-27T04:36:11.894Z,23.59
2019-06-27T04:41:16.978Z,23.73
2019-06-27T04:46:20.302Z,23.46
2019-06-27T04:51:24.789Z,23.44
2019-06-27T04:56:27.131Z,23.48
2019-06-27T05:01:29.674Z,23.43
2019-06-27T05:06:31.753Z,23.47
2019-06-27T05:11:33.751Z,23.41
2019-06-27T05:16:35.981Z,23.39
2019-06-27T05:21:41.231Z,23.36
2019-06-27T05:26:45.263Z,23.39
2019-06-27T05:31:48.152Z,23.02
2019-06-27T05:36:50.691Z,23.14
2019-06-27T05:41:53.220Z,23.47
2019-06-27T05:46:57.332Z,22.64
2019-06-27T05:51:59.331Z,22.97
2019-06-27T05:57:01.404Z,23.58
2019-06-27T06:02:08.381Z,23.47
2019-06-27T06:07:10.365Z,23.69
2019-06-27T06:12:12.404Z,23.50
2019-06-27T06:17:14.702Z,23.42
2019-06-27T06:22:16.813Z,23.04
2019-06-27T06:27:18.886Z,23.95
2019-06-27T06:32:21.212Z,23.93
2019-06-27T06:37:23.294Z,23.85
2019-06-27T06:42:43.026Z,23.64
2019-06-27T06:47:54.490Z,23.84
2019-06-27T06:53:08.101Z,23.79
2019-06-27T06:58:20.278Z,23.81
2019-06-27T07:03:59.647Z,23.85
2019-06-27T07:09:26.667Z,23.75
2019-06-27T07:14:43.035Z,24.00
2019-06-27T07:20:03.068Z,23.92
2019-06-27T07:25:12.112Z,24.04
2019-06-27T07:30:24.061Z,24.02
2019-06-27T07:35:41.817Z,24.20
2019-06-27T07:41:07.634Z,24.20
2019-06-27T07:46:24.972Z,24.18
2019-06-27T07:51:31.738Z,24.28
2019-06-27T07:56:38.482Z,24.50
2019-06-27T08:01:46.392Z,24.40
2019-06-27T08:06:53.220Z,24.44
2019-06-27T08:12:07.887Z,24.66
2019-06-27T08:17:27.925Z,24.78
2019-06-27T08:22:40.240Z,24.85
2019-06-27T08:27:58.715Z,25.04
2019-06-27T08:33:09.650Z,24.91
2019-06-27T08:38:35.955Z,25.17
2019-06-27T08:43:49.718Z,25.12
2019-06-27T08:48:58.565Z,25.26
2019-06-27T08:54:06.431Z,25.17
2019-06-27T08:59:13.296Z,25.37
2019-06-27T09:04:29.610Z,25.41
2019-06-27T09:09:52.755Z,25.51
2019-06-27T09:15:02.480Z,25.41
2019-06-27T09:20:32.000Z,25.50
2019-06-27T09:25:49.924Z,25.72
2019-06-27T09:30:58.889Z,25.72
2019-06-27T09:36:35.722Z,25.84
2019-06-27T09:41:49.973Z,25.85
2019-06-27T09:47:07.200Z,25.99
2019-06-27T09:52:23.908Z,25.98
2019-06-27T09:57:39.738Z,25.94
2019-06-27T10:02:57.290Z,25.95
2019-06-27T10:08:14.085Z,26.06
2019-06-27T10:13:22.843Z,26.08
2019-06-27T10:18:33.381Z,26.13
2019-06-27T10:23:38.997Z,26.38
2019-06-27T10:29:11.079Z,26.33
2019-06-27T10:34:35.382Z,26.43
2019-06-27T10:39:38.760Z,26.54
2019-06-27T10:44:53.990Z,26.65
2019-06-27T10:50:02.718Z,26.55
2019-06-27T10:55:10.237Z,26.82
2019-06-27T11:00:42.025Z,27.03
2019-06-27T11:05:57.341Z,26.95
2019-06-27T11:11:04.186Z,27.09
2019-06-27T11:16:15.051Z,27.29
2019-06-27T11:21:25.968Z,27.26
2019-06-27T11:26:34.640Z,27.48
2019-06-27T11:31:54.738Z,27.45
2019-06-27T11:37:01.464Z,27.43
2019-06-27T11:42:07.018Z,27.49
2019-06-27T11:47:24.651Z,27.84
2019-06-27T11:52:34.424Z,27.66
2019-06-27T11:57:55.597Z,27.65
2019-06-27T12:03:00.493Z,27.54
2019-06-27T12:08:04.015Z,27.70
2019-06-27T12:13:07.821Z,27.78
2019-06-27T12:18:19.649Z,27.93
2019-06-27T12:23:32.143Z,27.92
2019-06-27T12:28:46.415Z,28.06
2019-06-27T12:34:06.149Z,28.18
2019-06-27T12:39:15.895Z,28.17
2019-06-27T12:44:32.450Z,28.40
2019-06-27T12:50:00.240Z,28.14
2019-06-27T12:54:46.139Z,28.43
2019-06-27T12:59:56.814Z,28.34
2019-06-27T13:05:01.873Z,28.48
2019-06-27T13:10:07.762Z,28.56
2019-06-27T13:15:24.058Z,28.82
2019-06-27T13:20:28.635Z,28.94
2019-06-27T13:25:34.578Z,29.01
2019-06-27T13:30:43.381Z,29.14
2019-06-27T13:35:50.647Z,29.39
2019-06-27T13:40:55.550Z,29.47
2019-06-27T13:46:06.179Z,29.55
2019-06-27T13:51:15.872Z,29.78
2019-06-27T13:56:19.989Z,29.87
2019-06-27T14:01:23.220Z,29.97
2019-06-27T14:06:28.435Z,30.00
2019-06-27T14:11:39.411Z,30.17
2019-06-27T14:16:42.152Z,30.29
2019-06-27T14:21:47.150Z,30.53
2019-06-27T14:26:55.486Z,30.67
2019-06-27T14:32:03.483Z,30.68
2019-06-27T14:37:38.141Z,30.78
2019-06-27T14:42:42.437Z,30.87
2019-06-27T14:47:49.636Z,30.94
2019-06-27T14:53:23.482Z,31.27
2019-06-27T14:58:29.449Z,31.49
2019-06-27T15:03:41.446Z,31.70
2019-06-27T15:09:02.602Z,31.82
2019-06-27T15:14:13.851Z,31.81
2019-06-27T15:19:18.191Z,31.91
2019-06-27T15:24:21.894Z,32.47
2019-06-27T15:29:32.468Z,33.45
2019-06-27T15:34:44.141Z,34.64
2019-06-27T15:40:10.331Z,36.06
2019-06-27T15:45:18.603Z,35.94
2019-06-27T15:50:32.368Z,36.31
2019-06-27T15:55:40.542Z,35.57
2019-06-27T16:00:55.471Z,36.38
2019-06-27T16:06:09.114Z,35.78
2019-06-27T16:11:10.227Z,35.90
2019-06-27T16:16:57.713Z,35.58
2019-06-27T16:22:03.007Z,34.94
2019-06-27T16:27:15.331Z,34.50
2019-06-27T16:32:18.425Z,34.59
2019-06-27T16:37:26.800Z,34.04
2019-06-27T16:42:37.613Z,33.88
2019-06-27T16:47:44.858Z,33.94
2019-06-27T16:52:56.689Z,33.85
2019-06-27T16:58:14.956Z,33.80
2019-06-27T17:03:25.618Z,33.44
2019-06-27T17:08:31.720Z,33.63
2019-06-27T17:13:54.342Z,33.62
2019-06-27T17:19:01.314Z,33.57
2019-06-27T17:24:13.378Z,33.78
2019-06-27T17:29:17.807Z,33.57
2019-06-27T17:34:20.951Z,33.53
2019-06-27T17:39:28.873Z,32.75
2019-06-27T17:44:44.378Z,32.72
2019-06-27T17:50:07.764Z,32.00
2019-06-27T17:55:19.452Z,31.63
2019-06-27T18:00:29.472Z,31.24
2019-06-27T18:05:36.379Z,30.97
2019-06-27T18:10:44.951Z,30.82
2019-06-27T18:16:01.836Z,30.78
2019-06-27T18:21:15.557Z,30.80
2019-06-27T18:26:23.919Z,31.21
2019-06-27T18:31:40.049Z,31.00
2019-06-27T18:36:47.851Z,30.47
2019-06-27T18:42:02.562Z,29.84
2019-06-27T18:47:32.741Z,29.63
2019-06-27T18:59:36.039Z,29.00
2019-06-27T19:05:16.183Z,28.59
2019-06-27T19:10:50.443Z,28.57
2019-06-27T19:16:20.698Z,28.34
2019-06-27T19:22:22.537Z,28.00
2019-06-27T19:27:45.078Z,28.12
2019-06-27T19:32:50.613Z,27.91
2019-06-27T19:38:14.889Z,27.63
2019-06-27T19:43:27.634Z,27.39
2019-06-27T19:48:29.229Z,27.27
2019-06-27T19:53:36.263Z,27.22
2019-06-27T19:58:50.179Z,27.16
2019-06-27T20:04:08.703Z,27.01
2019-06-27T20:09:30.034Z,26.85
2019-06-27T20:14:56.833Z,26.62
2019-06-27T20:20:20.851Z,26.56
2019-06-27T20:25:27.393Z,26.59
2019-06-27T20:30:36.409Z,26.21
2019-06-27T20:35:41.006Z,25.93
2019-06-27T20:46:10.466Z,25.92
2019-06-27T20:51:15.177Z,25.97
2019-06-27T20:56:23.920Z,25.47
2019-06-27T21:01:36.197Z,25.33
2019-06-27T21:06:43.882Z,25.50
2019-06-27T21:11:51.687Z,25.25
2019-06-27T21:16:55.849Z,24.98
2019-06-27T21:22:09.641Z,24.99
2019-06-27T21:27:35.667Z,24.92
2019-06-27T21:32:48.497Z,24.68
2019-06-27T21:37:58.734Z,24.92
2019-06-27T21:43:02.598Z,24.86
2019-06-27T21:48:13.408Z,24.78
2019-06-27T21:58:51.680Z,24.33
2019-06-27T22:04:05.624Z,23.85
2019-06-27T22:15:44.807Z,24.11
2019-06-27T22:20:46.981Z,23.88
2019-06-27T22:25:54.521Z,23.84
2019-06-27T22:30:59.834Z,23.82
2019-06-27T22:36:03.815Z,23.83
2019-06-27T22:41:25.384Z,23.66
2019-06-27T22:46:52.114Z,23.61
2019-06-27T22:52:24.114Z,23.57
2019-06-27T22:57:28.446Z,23.31
2019-06-27T23:02:31.907Z,23.02
2019-06-27T23:07:37.362Z,22.99
2019-06-27T23:12:40.901Z,23.35
2019-06-27T23:17:51.145Z,22.93
2019-06-27T23:22:59.163Z,22.75
2019-06-27T23:28:06.476Z,22.58
2019-06-27T23:33:11.238Z,22.85
2019-06-27T23:38:37.243Z,22.52
2019-06-27T23:43:40.708Z,22.55
2019-06-27T23:48:43.581Z,22.26
2019-06-27T23:53:51.082Z,21.91
2019-06-27T23:58:55.513Z,22.21
